createdAt,value
2023-12-08T00:02:17.858Z,55.53
2023-12-08T00:04:44.934Z,57.67
2023-12-08T00:07:12.075Z,56.03
2023-12-08T00:09:38.913Z,56.00
2023-12-08T00:12:06.425Z,61.47
2023-12-08T00:14:33.357Z,62.77
2023-12-08T00:17:00.105Z,55.17
2023-12-08T00:19:26.967Z,61.97
2023-12-08T00:21:54.579Z,60.40
2023-12-08T00:24:21.384Z,55.57
2023-12-08T00:26:48.177Z,62.23
2023-12-08T00:29:20.453Z,64.30
2023-12-08T00:31:48.184Z,64.30
2023-12-08T00:34:15.414Z,67.70
2023-12-08T00:36:43.016Z,63.07
2023-12-08T00:39:10.123Z,70.67
2023-12-08T00:41:37.072Z,65.73
2023-12-08T00:44:05.020Z,60.03
2023-12-08T00:46:32.378Z,63.87
2023-12-08T00:48:59.351Z,61.63
2023-12-08T00:51:26.648Z,68.00
2023-12-08T00:53:53.585Z,68.83
2023-12-08T00:56:20.837Z,63.00
2023-12-08T00:58:47.999Z,72.27
2023-12-08T01:01:17.196Z,71.67
2023-12-08T01:03:44.264Z,61.90
2023-12-08T01:06:11.421Z,63.33
2023-12-08T01:08:38.287Z,68.97
2023-12-08T01:11:07.363Z,64.20
2023-12-08T01:13:34.345Z,59.73
2023-12-08T01:16:01.229Z,61.60
2023-12-08T01:18:28.181Z,68.33
2023-12-08T01:20:55.475Z,64.60
2023-12-08T01:23:22.281Z,57.63
2023-12-08T01:25:49.594Z,59.63
2023-12-08T01:28:17.109Z,63.50
2023-12-08T01:30:44.223Z,65.53
2023-12-08T01:33:11.059Z,69.73
2023-12-08T01:35:38.619Z,62.27
2023-12-08T01:38:05.878Z,62.00
2023-12-08T01:40:32.951Z,65.30
2023-12-08T01:42:59.909Z,64.33
2023-12-08T01:45:26.819Z,71.60
2023-12-08T01:47:54.087Z,64.27
2023-12-08T01:50:21.391Z,62.77
2023-12-08T01:52:50.220Z,63.67
2023-12-08T01:55:17.249Z,66.80
2023-12-08T01:57:44.461Z,74.37
2023-12-08T02:00:11.977Z,66.43
2023-12-08T02:02:39.270Z,63.43
2023-12-08T02:05:08.127Z,59.97
2023-12-08T02:07:35.237Z,60.90
2023-12-08T02:10:02.606Z,73.83
2023-12-08T02:12:29.426Z,68.17
2023-12-08T02:14:56.313Z,65.40
2023-12-08T02:17:27.902Z,61.07
2023-12-08T02:19:55.881Z,67.23
2023-12-08T02:22:25.947Z,62.97
2023-12-08T02:24:53.068Z,65.70
2023-12-08T02:27:20.220Z,59.37
2023-12-08T02:29:47.232Z,62.47
2023-12-08T02:32:19.786Z,63.47
2023-12-08T02:34:48.714Z,60.23
2023-12-08T02:37:17.563Z,58.80
2023-12-08T02:39:45.562Z,63.87
2023-12-08T02:42:12.819Z,60.93
2023-12-08T02:44:39.705Z,58.20
2023-12-08T02:47:07.750Z,66.77
2023-12-08T02:49:35.667Z,60.57
2023-12-08T02:52:02.752Z,66.20
2023-12-08T02:54:29.539Z,59.53
2023-12-08T02:56:56.363Z,64.57
2023-12-08T02:59:23.176Z,61.77
2023-12-08T03:01:50.038Z,57.97
2023-12-08T03:04:17.079Z,58.07
2023-12-08T03:06:44.013Z,62.50
2023-12-08T03:09:12.060Z,69.20
2023-12-08T03:11:38.885Z,63.43
2023-12-08T03:14:05.774Z,58.73
2023-12-08T03:16:33.003Z,59.90
2023-12-08T03:19:00.271Z,65.50
2023-12-08T03:21:28.350Z,65.17
2023-12-08T03:23:55.513Z,64.90
2023-12-08T03:26:22.514Z,64.30
2023-12-08T03:28:49.394Z,62.33
2023-12-08T03:31:24.408Z,62.53
2023-12-08T03:33:51.314Z,62.80
2023-12-08T03:36:18.245Z,62.50
2023-12-08T03:38:45.432Z,64.17
2023-12-08T03:41:13.166Z,62.23
2023-12-08T03:43:40.690Z,62.73
2023-12-08T03:46:08.852Z,62.37
2023-12-08T03:48:36.618Z,66.00
2023-12-08T03:51:04.865Z,74.53
2023-12-08T03:53:32.735Z,68.47
2023-12-08T03:55:59.812Z,68.33
2023-12-08T03:58:28.309Z,64.03
2023-12-08T04:00:55.414Z,61.50
2023-12-08T04:03:22.659Z,64.47
2023-12-08T04:05:52.448Z,70.13
2023-12-08T04:08:19.350Z,64.77
2023-12-08T04:10:46.951Z,65.97
2023-12-08T04:13:13.870Z,74.53
2023-12-08T04:15:41.111Z,65.60
2023-12-08T04:18:08.224Z,62.73
2023-12-08T04:20:35.402Z,64.87
2023-12-08T04:23:06.307Z,63.23
2023-12-08T04:25:33.320Z,66.17
2023-12-08T04:28:00.396Z,61.80
2023-12-08T04:30:27.278Z,63.23
2023-12-08T04:32:54.240Z,67.03
2023-12-08T04:35:21.289Z,65.93
2023-12-08T04:37:48.086Z,61.30
2023-12-08T04:40:15.129Z,67.57
2023-12-08T04:42:42.667Z,64.43
2023-12-08T04:45:11.222Z,65.17
2023-12-08T04:47:38.766Z,60.77
2023-12-08T04:50:06.200Z,60.13
2023-12-08T04:52:33.666Z,58.20
2023-12-08T04:55:02.835Z,59.30
2023-12-08T04:57:30.342Z,63.40
2023-12-08T04:59:58.047Z,56.67
2023-12-08T05:02:24.880Z,60.80
2023-12-08T05:04:51.783Z,66.77
2023-12-08T05:07:18.619Z,67.40
2023-12-08T05:09:45.356Z,60.27
2023-12-08T05:12:12.311Z,63.63
2023-12-08T05:14:39.144Z,72.40
2023-12-08T05:17:06.129Z,59.60
2023-12-08T05:19:33.256Z,67.00
2023-12-08T05:22:00.264Z,59.57
2023-12-08T05:24:27.110Z,62.23
2023-12-08T05:26:53.975Z,61.03
2023-12-08T05:29:21.135Z,64.77
2023-12-08T05:31:48.101Z,64.20
2023-12-08T05:34:15.260Z,58.33
2023-12-08T05:36:42.227Z,53.67
2023-12-08T05:39:09.016Z,64.93
2023-12-08T05:41:38.095Z,58.43
2023-12-08T05:44:05.270Z,56.03
2023-12-08T05:46:32.484Z,57.77
2023-12-08T05:48:59.357Z,65.57
2023-12-08T05:51:27.637Z,65.50
2023-12-08T05:53:54.469Z,54.67
2023-12-08T05:56:21.406Z,51.27
2023-12-08T05:58:48.450Z,63.17
2023-12-08T06:01:15.755Z,54.47
2023-12-08T06:03:42.883Z,55.23
2023-12-08T06:06:09.800Z,56.30
2023-12-08T06:08:36.925Z,65.63
2023-12-08T06:11:04.600Z,62.10
2023-12-08T06:13:31.515Z,63.30
2023-12-08T06:15:58.391Z,55.73
2023-12-08T06:18:26.835Z,59.93
2023-12-08T06:20:54.104Z,63.90
2023-12-08T06:23:20.888Z,59.43
2023-12-08T06:25:47.947Z,57.97
2023-12-08T06:28:14.705Z,57.43
2023-12-08T06:30:41.714Z,55.63
2023-12-08T06:33:08.812Z,59.83
2023-12-08T06:35:37.705Z,59.77
2023-12-08T06:38:05.811Z,65.40
2023-12-08T06:40:32.837Z,62.60
2023-12-08T06:42:59.836Z,60.03
2023-12-08T06:45:27.061Z,63.93
2023-12-08T06:47:54.878Z,58.63
2023-12-08T06:50:22.851Z,59.53
2023-12-08T06:52:52.524Z,57.07
2023-12-08T06:55:19.925Z,63.20
2023-12-08T06:57:46.853Z,56.23
2023-12-08T07:00:14.600Z,60.10
2023-12-08T07:02:41.858Z,63.53
2023-12-08T07:05:09.275Z,60.63
2023-12-08T07:07:36.693Z,63.03
2023-12-08T07:10:03.929Z,66.30
2023-12-08T07:12:31.532Z,62.50
2023-12-08T07:14:58.439Z,63.70
2023-12-08T07:17:26.130Z,64.40
2023-12-08T07:19:53.468Z,63.63
2023-12-08T07:22:20.431Z,68.53
2023-12-08T07:24:47.241Z,59.93
2023-12-08T07:27:14.109Z,57.33
2023-12-08T07:29:40.922Z,57.60
2023-12-08T07:32:08.418Z,53.80
2023-12-08T07:34:35.260Z,68.50
2023-12-08T07:37:02.150Z,57.83
2023-12-08T07:39:28.946Z,56.37
2023-12-08T07:41:55.853Z,66.27
2023-12-08T07:44:22.804Z,57.83
2023-12-08T07:46:49.712Z,57.80
2023-12-08T07:49:16.717Z,58.20
2023-12-08T07:51:43.728Z,60.37
2023-12-08T07:54:11.792Z,61.40
2023-12-08T07:56:38.956Z,59.00
2023-12-08T07:59:06.025Z,60.43
2023-12-08T08:01:32.914Z,57.27
2023-12-08T08:03:59.819Z,65.83
2023-12-08T08:06:27.038Z,61.57
2023-12-08T08:08:54.216Z,59.47
2023-12-08T08:11:21.275Z,61.90
2023-12-08T08:13:49.104Z,62.20
2023-12-08T08:16:16.097Z,57.87
2023-12-08T08:18:43.031Z,60.33
2023-12-08T08:21:10.164Z,61.83
2023-12-08T08:23:37.310Z,60.60
2023-12-08T08:26:04.381Z,63.60
2023-12-08T08:28:31.645Z,63.37
2023-12-08T08:30:58.707Z,75.70
2023-12-08T08:33:25.972Z,60.90
2023-12-08T08:35:53.040Z,67.13
2023-12-08T08:38:19.885Z,62.83
2023-12-08T08:40:47.263Z,58.27
2023-12-08T08:43:14.224Z,64.63
2023-12-08T08:45:41.016Z,65.80
2023-12-08T08:48:08.306Z,58.30
2023-12-08T08:50:43.507Z,66.30
2023-12-08T08:53:15.960Z,60.53
2023-12-08T08:55:43.221Z,63.90
2023-12-08T08:58:10.105Z,60.87
2023-12-08T09:00:37.321Z,60.47
2023-12-08T09:03:04.628Z,59.73
2023-12-08T09:05:34.128Z,62.70
2023-12-08T09:08:01.427Z,63.17
2023-12-08T09:10:28.187Z,64.57
2023-12-08T09:12:55.072Z,63.90
2023-12-08T09:15:21.952Z,62.53
2023-12-08T09:17:49.396Z,59.73
2023-12-08T09:20:16.390Z,59.30
2023-12-08T09:22:43.531Z,68.53
2023-12-08T09:25:10.415Z,63.60
2023-12-08T09:27:38.000Z,61.47
2023-12-08T09:30:05.793Z,65.27
2023-12-08T09:32:33.128Z,64.33
2023-12-08T09:35:00.286Z,60.87
2023-12-08T09:37:35.681Z,63.43
2023-12-08T09:40:06.480Z,61.97
2023-12-08T09:43:03.220Z,62.97
2023-12-08T09:45:30.351Z,63.50
2023-12-08T09:48:00.251Z,64.93
2023-12-08T09:50:28.035Z,65.23
2023-12-08T09:52:55.449Z,61.53
2023-12-08T09:55:22.773Z,64.13
2023-12-08T09:57:53.998Z,60.70
2023-12-08T10:00:21.608Z,61.60
2023-12-08T10:02:50.323Z,60.33
2023-12-08T10:05:18.298Z,55.90
2023-12-08T10:07:49.974Z,65.90
2023-12-08T10:10:16.869Z,55.87
2023-12-08T10:12:44.268Z,59.20
2023-12-08T10:15:12.914Z,58.90
2023-12-08T10:17:54.024Z,58.07
2023-12-08T10:20:22.533Z,60.93
2023-12-08T10:22:58.520Z,58.67
2023-12-08T10:25:30.455Z,63.83
2023-12-08T10:27:57.997Z,58.53
2023-12-08T10:30:27.250Z,65.57
2023-12-08T10:32:55.510Z,60.50
2023-12-08T10:35:23.225Z,58.70
2023-12-08T10:37:51.421Z,56.77
2023-12-08T10:40:19.683Z,58.77
2023-12-08T10:42:49.475Z,58.63
2023-12-08T10:45:17.754Z,61.10
2023-12-08T10:47:46.836Z,60.10
2023-12-08T10:50:14.859Z,56.40
2023-12-08T10:52:42.471Z,64.37
2023-12-08T10:55:10.840Z,57.53
2023-12-08T10:57:41.103Z,54.43
2023-12-08T11:00:18.921Z,61.73
2023-12-08T11:02:51.679Z,60.03
2023-12-08T11:05:38.582Z,66.83
2023-12-08T11:08:14.118Z,63.23
2023-12-08T11:10:44.916Z,64.43
2023-12-08T11:13:30.027Z,58.07
2023-12-08T11:16:18.688Z,60.33
2023-12-08T11:18:46.837Z,54.57
2023-12-08T11:21:14.205Z,57.00
2023-12-08T11:23:42.429Z,58.07
2023-12-08T11:26:26.640Z,60.53
2023-12-08T11:29:00.540Z,59.77
2023-12-08T11:31:45.574Z,58.80
2023-12-08T11:34:22.464Z,67.93
2023-12-08T11:36:51.340Z,66.47
2023-12-08T11:39:39.285Z,62.00
2023-12-08T11:42:11.108Z,62.00
2023-12-08T11:44:40.097Z,63.33
2023-12-08T11:47:08.127Z,60.00
2023-12-08T11:49:39.204Z,59.13
2023-12-08T11:52:33.621Z,61.50
2023-12-08T11:55:28.270Z,54.57
2023-12-08T11:58:03.286Z,66.40
2023-12-08T12:00:32.088Z,58.00
2023-12-08T12:03:00.396Z,56.00
2023-12-08T12:05:27.924Z,60.10
2023-12-08T12:07:56.358Z,62.00
2023-12-08T12:10:27.139Z,60.87
2023-12-08T12:13:04.257Z,56.63
2023-12-08T12:15:34.633Z,56.87
2023-12-08T12:18:02.551Z,58.57
2023-12-08T12:20:30.167Z,60.03
2023-12-08T12:22:57.680Z,51.70
2023-12-08T12:25:26.262Z,62.37
2023-12-08T12:27:55.483Z,58.77
2023-12-08T12:30:23.841Z,56.37
2023-12-08T12:32:51.739Z,60.43
2023-12-08T12:35:19.047Z,57.43
2023-12-08T12:37:46.714Z,63.07
2023-12-08T12:40:13.666Z,61.50
2023-12-08T12:42:47.872Z,61.87
2023-12-08T12:45:31.869Z,56.60
2023-12-08T12:48:07.615Z,56.20
2023-12-08T12:50:53.436Z,63.53
2023-12-08T12:53:20.472Z,65.73
2023-12-08T12:55:48.037Z,63.83
2023-12-08T12:58:21.977Z,59.50
2023-12-08T13:00:49.615Z,50.40
2023-12-08T13:03:19.892Z,50.57
2023-12-08T13:05:55.866Z,59.87
2023-12-08T13:08:23.869Z,57.13
2023-12-08T13:10:52.343Z,56.07
2023-12-08T13:13:19.526Z,56.93
2023-12-08T13:15:47.356Z,61.90
2023-12-08T13:18:14.811Z,62.63
2023-12-08T13:20:42.754Z,63.97
2023-12-08T13:23:09.951Z,69.63
2023-12-08T13:25:37.862Z,62.77
2023-12-08T13:28:04.942Z,63.13
2023-12-08T13:30:31.826Z,61.03
2023-12-08T13:32:59.594Z,56.60
2023-12-08T13:35:27.534Z,56.17
2023-12-08T13:37:54.347Z,61.40
2023-12-08T13:40:26.613Z,55.13
2023-12-08T13:42:53.480Z,56.53
2023-12-08T13:45:20.637Z,48.77
2023-12-08T13:47:47.583Z,51.23
2023-12-08T13:50:14.376Z,48.47
2023-12-08T13:52:41.158Z,50.40
2023-12-08T13:55:08.437Z,46.93
2023-12-08T13:57:35.174Z,58.17
2023-12-08T14:00:02.110Z,50.23
2023-12-08T14:02:29.012Z,49.60
2023-12-08T14:04:55.826Z,51.33
2023-12-08T14:07:22.789Z,48.50
2023-12-08T14:09:49.557Z,45.63
2023-12-08T14:12:16.440Z,46.57
2023-12-08T14:14:43.252Z,50.47
2023-12-08T14:17:10.747Z,46.37
2023-12-08T14:19:37.567Z,51.43
2023-12-08T14:22:04.547Z,53.60
2023-12-08T14:24:31.363Z,48.37
2023-12-08T14:26:58.133Z,47.97
2023-12-08T14:29:24.952Z,47.77
2023-12-08T14:31:51.782Z,44.67
2023-12-08T14:34:18.953Z,45.07
2023-12-08T14:36:47.218Z,49.10
2023-12-08T14:39:14.500Z,49.10
2023-12-08T14:41:41.497Z,54.30
2023-12-08T14:44:08.987Z,44.87
2023-12-08T14:46:38.540Z,47.50
2023-12-08T14:49:06.167Z,46.83
2023-12-08T14:51:33.232Z,49.10
2023-12-08T14:54:00.105Z,45.33
2023-12-08T14:56:28.368Z,44.77
2023-12-08T14:58:55.263Z,45.27
2023-12-08T15:01:22.568Z,44.53
2023-12-08T15:03:49.646Z,50.07
2023-12-08T15:06:17.156Z,45.70
2023-12-08T15:08:44.741Z,46.83
2023-12-08T15:11:11.861Z,59.57
2023-12-08T15:13:38.887Z,51.20
2023-12-08T15:16:06.449Z,52.10
2023-12-08T15:18:33.886Z,55.47
2023-12-08T15:21:01.333Z,50.43
2023-12-08T15:23:34.786Z,51.67
2023-12-08T15:26:01.790Z,56.93
2023-12-08T15:28:28.886Z,68.50
2023-12-08T15:30:58.661Z,52.03
2023-12-08T15:33:25.556Z,52.37
2023-12-08T15:35:52.517Z,47.80
2023-12-08T15:38:19.998Z,65.60
2023-12-08T15:40:46.929Z,60.93
2023-12-08T15:43:14.006Z,56.07
2023-12-08T15:45:41.171Z,57.53
2023-12-08T15:48:09.148Z,54.03
2023-12-08T15:50:36.120Z,69.00
2023-12-08T15:53:02.887Z,44.93
2023-12-08T15:55:29.669Z,45.13
2023-12-08T15:57:56.682Z,49.47
2023-12-08T16:00:23.753Z,46.83
2023-12-08T16:02:50.701Z,47.50
2023-12-08T16:05:17.849Z,42.70
2023-12-08T16:07:44.611Z,45.87
2023-12-08T16:10:11.850Z,43.23
2023-12-08T16:12:38.964Z,43.77
2023-12-08T16:15:12.463Z,49.03
2023-12-08T16:17:39.491Z,46.93
2023-12-08T16:20:07.024Z,44.43
2023-12-08T16:22:33.792Z,45.40
2023-12-08T16:25:00.634Z,44.73
2023-12-08T16:27:28.120Z,49.77
2023-12-08T16:29:55.642Z,48.13
2023-12-08T16:32:22.404Z,47.37
2023-12-08T16:34:49.289Z,52.83
2023-12-08T16:37:16.427Z,46.60
2023-12-08T16:39:43.696Z,44.57
2023-12-08T16:42:10.571Z,41.13
2023-12-08T16:44:37.671Z,54.37
2023-12-08T16:47:04.949Z,45.53
2023-12-08T16:49:32.373Z,46.80
2023-12-08T16:51:59.433Z,44.23
2023-12-08T16:54:26.333Z,47.10
2023-12-08T16:56:54.658Z,47.97
2023-12-08T16:59:21.590Z,44.97
2023-12-08T17:01:48.366Z,39.27
2023-12-08T17:04:15.252Z,42.33
2023-12-08T17:06:42.350Z,48.43
2023-12-08T17:09:09.233Z,39.30
2023-12-08T17:11:36.157Z,42.63
2023-12-08T17:14:02.938Z,38.97
2023-12-08T17:16:29.721Z,40.27
2023-12-08T17:18:56.895Z,50.57
2023-12-08T17:21:24.163Z,38.40
2023-12-08T17:23:51.228Z,39.47
2023-12-08T17:26:22.704Z,50.17
2023-12-08T17:28:56.286Z,55.40
2023-12-08T17:31:23.873Z,53.40
2023-12-08T17:33:51.358Z,37.40
2023-12-08T17:36:18.642Z,41.00
2023-12-08T17:38:45.737Z,35.23
2023-12-08T17:41:12.635Z,51.80
2023-12-08T17:43:39.409Z,45.63
2023-12-08T17:46:08.582Z,43.50
2023-12-08T17:48:36.966Z,44.07
2023-12-08T17:51:04.059Z,40.90
2023-12-08T17:53:31.159Z,41.10
2023-12-08T17:55:58.180Z,38.90
2023-12-08T17:58:24.939Z,43.47
2023-12-08T18:00:51.989Z,44.70
2023-12-08T18:03:19.619Z,39.23
2023-12-08T18:05:47.315Z,48.27
2023-12-08T18:08:15.973Z,42.73
2023-12-08T18:10:42.972Z,42.47
2023-12-08T18:13:09.813Z,47.20
2023-12-08T18:15:36.968Z,40.33
2023-12-08T18:18:05.089Z,43.33
2023-12-08T18:20:32.270Z,45.00
2023-12-08T18:22:59.677Z,41.40
2023-12-08T18:25:27.277Z,41.60
2023-12-08T18:28:07.693Z,41.87
2023-12-08T18:30:40.891Z,46.67
2023-12-08T18:33:08.061Z,44.00
2023-12-08T18:35:35.747Z,47.77
2023-12-08T18:38:02.565Z,47.27
2023-12-08T18:40:31.449Z,45.40
2023-12-08T18:42:58.297Z,47.23
2023-12-08T18:45:25.234Z,60.47
2023-12-08T18:47:52.493Z,50.27
2023-12-08T18:50:19.308Z,47.60
2023-12-08T18:52:46.584Z,58.53
2023-12-08T18:55:14.547Z,49.40
2023-12-08T18:57:41.506Z,60.23
2023-12-08T19:00:10.036Z,56.03
2023-12-08T19:02:37.511Z,54.20
2023-12-08T19:05:05.444Z,57.40
2023-12-08T19:07:32.397Z,57.20
2023-12-08T19:09:59.489Z,54.97
2023-12-08T19:12:26.716Z,54.13
2023-12-08T19:14:54.552Z,53.83
2023-12-08T19:17:21.441Z,55.87
2023-12-08T19:19:48.600Z,65.73
2023-12-08T19:22:15.512Z,70.23
2023-12-08T19:24:44.473Z,63.30
2023-12-08T19:27:11.341Z,61.27
2023-12-08T19:29:41.967Z,63.30
2023-12-08T19:32:08.899Z,57.47
2023-12-08T19:34:35.967Z,52.60
2023-12-08T19:37:03.063Z,53.97
2023-12-08T19:39:29.900Z,53.27
2023-12-08T19:41:56.883Z,55.33
2023-12-08T19:44:23.956Z,57.77
2023-12-08T19:46:50.928Z,52.53
2023-12-08T19:49:18.240Z,56.13
2023-12-08T19:51:45.490Z,52.20
2023-12-08T19:54:12.717Z,49.77
2023-12-08T19:56:39.563Z,56.47
2023-12-08T19:59:06.543Z,54.33
2023-12-08T20:01:33.580Z,54.97
2023-12-08T20:04:00.739Z,55.03
2023-12-08T20:06:27.922Z,60.50
2023-12-08T20:08:54.926Z,55.40
2023-12-08T20:11:22.008Z,56.40
2023-12-08T20:13:49.538Z,53.67
2023-12-08T20:16:17.074Z,59.73
2023-12-08T20:18:44.202Z,54.97
2023-12-08T20:21:11.251Z,56.93
2023-12-08T20:23:38.098Z,53.13
2023-12-08T20:26:05.467Z,58.43
2023-12-08T20:28:33.680Z,60.37
2023-12-08T20:31:01.668Z,65.20
2023-12-08T20:33:28.638Z,65.13
2023-12-08T20:35:57.516Z,61.47
2023-12-08T20:38:25.522Z,63.87
2023-12-08T20:40:52.445Z,61.87
2023-12-08T20:43:23.464Z,55.70
2023-12-08T20:45:51.247Z,56.17
2023-12-08T20:48:19.898Z,55.70
2023-12-08T20:50:47.106Z,64.00
2023-12-08T20:53:14.880Z,62.33
2023-12-08T20:55:41.648Z,62.07
2023-12-08T20:58:08.419Z,63.87
2023-12-08T21:00:35.348Z,60.97
2023-12-08T21:03:02.162Z,63.90
2023-12-08T21:05:28.952Z,53.20
2023-12-08T21:07:55.835Z,57.53
2023-12-08T21:10:22.637Z,55.63
2023-12-08T21:12:49.408Z,42.10
2023-12-08T21:15:18.165Z,43.17
2023-12-08T21:17:45.483Z,43.90
2023-12-08T21:20:12.359Z,35.00
2023-12-08T21:22:41.248Z,47.43
2023-12-08T21:25:12.565Z,40.63
2023-12-08T21:27:40.566Z,47.37
2023-12-08T21:30:09.629Z,43.13
2023-12-08T21:32:37.714Z,43.10
2023-12-08T21:35:05.094Z,49.63
2023-12-08T21:37:32.026Z,50.77
2023-12-08T21:39:58.808Z,40.97
2023-12-08T21:42:25.844Z,48.77
2023-12-08T21:44:52.941Z,47.20
2023-12-08T21:47:19.753Z,48.77
2023-12-08T21:49:46.595Z,41.30
2023-12-08T21:52:13.420Z,47.93
2023-12-08T21:54:40.252Z,50.77
2023-12-08T21:57:07.192Z,44.97
2023-12-08T21:59:34.072Z,46.93
2023-12-08T22:02:01.085Z,48.63
2023-12-08T22:04:27.885Z,53.03
2023-12-08T22:06:54.892Z,51.27
2023-12-08T22:09:21.752Z,44.47
2023-12-08T22:11:48.659Z,43.67
2023-12-08T22:14:15.765Z,44.27
2023-12-08T22:16:42.546Z,42.83
2023-12-08T22:19:09.506Z,47.30
2023-12-08T22:21:37.818Z,42.77
2023-12-08T22:24:05.269Z,37.57
2023-12-08T22:26:32.087Z,42.93
2023-12-08T22:28:58.893Z,42.90
2023-12-08T22:31:25.650Z,40.50
2023-12-08T22:33:52.547Z,40.10
2023-12-08T22:36:19.481Z,41.97
2023-12-08T22:38:46.286Z,39.47
2023-12-08T22:41:13.090Z,42.50
2023-12-08T22:43:40.065Z,43.57
2023-12-08T22:46:06.898Z,40.40
2023-12-08T22:48:33.784Z,37.40
2023-12-08T22:51:07.266Z,38.70
2023-12-08T22:53:37.740Z,40.30
2023-12-08T22:56:04.858Z,41.70
2023-12-08T22:58:31.648Z,40.37
2023-12-08T23:00:58.619Z,41.53
2023-12-08T23:03:25.543Z,42.87
2023-12-08T23:05:52.532Z,40.33
2023-12-08T23:08:19.412Z,40.43
2023-12-08T23:10:46.692Z,42.73
2023-12-08T23:13:16.671Z,36.63
2023-12-08T23:15:44.088Z,40.87
2023-12-08T23:18:10.948Z,41.33
2023-12-08T23:20:37.967Z,40.10
2023-12-08T23:23:05.415Z,35.13
2023-12-08T23:25:32.224Z,41.07
2023-12-08T23:27:59.296Z,38.47
2023-12-08T23:30:26.266Z,39.90
2023-12-08T23:32:53.434Z,41.67
2023-12-08T23:35:20.533Z,39.50
2023-12-08T23:37:47.494Z,41.47
2023-12-08T23:40:14.288Z,42.57
2023-12-08T23:42:41.072Z,32.03
2023-12-08T23:45:08.437Z,39.57
2023-12-08T23:47:35.797Z,38.17
2023-12-08T23:50:03.581Z,39.93
2023-12-08T23:52:30.387Z,35.03
2023-12-08T23:54:57.168Z,42.17
2023-12-08T23:57:24.292Z,39.37
2023-12-08T23:59:51.207Z,40.20
